createdAt,value
2022-10-05T00:01:00.901Z,18.96
2022-10-05T00:03:37.101Z,19.05
2022-10-05T00:06:11.495Z,19.13
2022-10-05T00:08:45.243Z,19.11
2022-10-05T00:11:18.708Z,19.27
2022-10-05T00:13:53.020Z,19.32
2022-10-05T00:16:28.234Z,19.25
2022-10-05T00:19:01.711Z,19.21
2022-10-05T00:21:34.886Z,19.07
2022-10-05T00:24:11.180Z,19.26
2022-10-05T00:26:45.162Z,19.13
2022-10-05T00:29:22.737Z,19.26
2022-10-05T00:31:57.777Z,19.23
2022-10-05T00:34:30.676Z,19.19
2022-10-05T00:37:04.334Z,19.11
2022-10-05T00:39:40.605Z,19.21
2022-10-05T00:42:29.924Z,19.22
2022-10-05T00:45:09.260Z,19.16
2022-10-05T00:47:59.297Z,19.37
2022-10-05T00:50:49.000Z,19.20
2022-10-05T00:53:35.089Z,19.28
2022-10-05T00:56:19.901Z,19.17
2022-10-05T00:59:00.918Z,19.36
2022-10-05T01:01:40.444Z,19.32
2022-10-05T01:04:22.399Z,19.34
2022-10-05T01:07:05.373Z,19.37
2022-10-05T01:09:46.960Z,19.21
2022-10-05T01:12:28.586Z,19.25
2022-10-05T01:15:09.394Z,19.31
2022-10-05T01:17:48.651Z,19.38
2022-10-05T01:20:33.026Z,19.21
2022-10-05T01:23:25.577Z,19.24
2022-10-05T01:26:18.291Z,19.29
2022-10-05T01:29:01.888Z,19.42
2022-10-05T01:31:43.558Z,19.22
2022-10-05T01:34:30.769Z,19.48
2022-10-05T01:37:13.060Z,19.46
2022-10-05T01:39:55.513Z,19.57
2022-10-05T01:42:41.423Z,19.38
2022-10-05T01:45:24.410Z,19.28
2022-10-05T01:48:06.508Z,19.26
2022-10-05T01:50:52.796Z,19.41
2022-10-05T01:53:46.603Z,19.27
2022-10-05T01:56:31.738Z,19.27
2022-10-05T01:59:18.409Z,19.26
2022-10-05T02:02:00.219Z,19.23
2022-10-05T02:07:38.425Z,19.44
2022-10-05T02:10:20.777Z,19.52
2022-10-05T02:13:00.874Z,19.43
2022-10-05T02:15:42.248Z,19.52
2022-10-05T02:18:22.908Z,19.68
2022-10-05T02:21:00.224Z,19.53
2022-10-05T02:23:39.685Z,19.64
2022-10-05T02:26:14.320Z,19.37
2022-10-05T02:28:53.950Z,19.52
2022-10-05T02:31:32.404Z,19.41
2022-10-05T02:34:28.828Z,19.62
2022-10-05T02:37:18.781Z,19.54
2022-10-05T02:40:14.367Z,19.52
2022-10-05T02:42:58.162Z,19.44
2022-10-05T02:45:43.125Z,19.35
2022-10-05T02:48:27.681Z,19.25
2022-10-05T02:51:10.090Z,19.29
2022-10-05T02:53:52.309Z,19.51
2022-10-05T02:56:33.474Z,19.61
2022-10-05T02:59:16.361Z,19.47
2022-10-05T03:01:53.940Z,19.42
2022-10-05T03:04:38.084Z,19.49
2022-10-05T03:07:19.188Z,19.41
2022-10-05T03:10:03.052Z,19.39
2022-10-05T03:12:51.236Z,19.43
2022-10-05T03:15:45.138Z,19.53
2022-10-05T03:18:30.785Z,19.46
2022-10-05T03:21:14.518Z,19.52
2022-10-05T03:24:06.415Z,19.50
2022-10-05T03:26:48.615Z,19.64
2022-10-05T03:29:29.549Z,19.60
2022-10-05T03:32:14.965Z,19.48
2022-10-05T03:34:55.472Z,19.54
2022-10-05T03:37:38.209Z,19.79
2022-10-05T03:40:27.804Z,19.55
2022-10-05T03:43:13.604Z,19.65
2022-10-05T03:45:53.308Z,19.64
2022-10-05T03:48:35.001Z,19.58
2022-10-05T03:51:14.823Z,19.62
2022-10-05T03:53:54.752Z,19.65
2022-10-05T03:56:37.002Z,19.61
2022-10-05T03:59:18.732Z,19.66
2022-10-05T04:01:59.155Z,19.61
2022-10-05T04:04:38.031Z,19.72
2022-10-05T04:07:28.925Z,19.67
2022-10-05T04:10:05.272Z,19.67
2022-10-05T04:12:44.220Z,19.66
2022-10-05T04:15:25.304Z,19.76
2022-10-05T04:18:05.120Z,19.67
2022-10-05T04:20:44.427Z,19.67
2022-10-05T04:23:24.155Z,19.66
2022-10-05T04:26:05.538Z,19.83
2022-10-05T04:28:47.615Z,19.89
2022-10-05T04:31:37.282Z,19.76
2022-10-05T04:34:22.854Z,19.90
2022-10-05T04:37:01.818Z,19.71
2022-10-05T04:39:44.425Z,19.70
2022-10-05T04:42:31.081Z,19.73
2022-10-05T04:45:13.440Z,19.51
2022-10-05T04:48:00.978Z,19.31
2022-10-05T04:50:49.171Z,19.28
2022-10-05T04:53:32.005Z,19.35
2022-10-05T04:56:12.127Z,19.32
2022-10-05T04:59:07.469Z,19.23
2022-10-05T05:02:06.857Z,19.33
2022-10-05T05:05:06.057Z,19.13
2022-10-05T05:07:49.676Z,19.13
2022-10-05T05:10:55.282Z,19.18
2022-10-05T05:14:08.309Z,19.22
2022-10-05T05:16:45.063Z,19.14
2022-10-05T05:19:35.118Z,19.17
2022-10-05T05:22:18.764Z,19.30
2022-10-05T05:25:13.736Z,19.32
2022-10-05T05:27:55.100Z,19.16
2022-10-05T05:30:39.781Z,19.22
2022-10-05T05:33:22.017Z,19.36
2022-10-05T05:36:23.466Z,19.18
2022-10-05T05:39:13.121Z,19.30
2022-10-05T05:41:53.294Z,19.41
2022-10-05T05:44:28.941Z,19.49
2022-10-05T05:47:05.541Z,19.29
2022-10-05T05:49:51.442Z,19.44
2022-10-05T05:52:32.860Z,19.30
2022-10-05T05:55:14.946Z,19.29
2022-10-05T05:57:54.842Z,19.46
2022-10-05T06:00:35.818Z,19.35
2022-10-05T06:03:18.240Z,19.34
2022-10-05T06:05:55.736Z,19.39
2022-10-05T06:08:37.741Z,19.54
2022-10-05T06:11:17.332Z,19.36
2022-10-05T06:13:52.041Z,19.30
2022-10-05T06:16:31.242Z,19.29
2022-10-05T06:19:10.725Z,19.31
2022-10-05T06:21:52.004Z,19.42
2022-10-05T06:24:32.926Z,19.35
2022-10-05T06:27:27.695Z,19.43
2022-10-05T06:30:08.065Z,19.40
2022-10-05T06:33:03.135Z,19.44
2022-10-05T06:35:53.606Z,19.30
2022-10-05T06:38:45.641Z,19.38
2022-10-05T06:41:31.506Z,19.30
2022-10-05T06:44:14.274Z,19.27
2022-10-05T06:46:57.735Z,19.23
2022-10-05T06:49:36.203Z,19.03
2022-10-05T06:52:21.303Z,19.15
2022-10-05T06:55:15.091Z,19.30
2022-10-05T06:58:03.566Z,19.40
2022-10-05T07:00:42.241Z,19.36
2022-10-05T07:03:28.935Z,19.34
2022-10-05T07:06:17.715Z,19.08
2022-10-05T07:09:07.713Z,18.97
2022-10-05T07:12:03.661Z,19.04
2022-10-05T07:14:55.052Z,19.14
2022-10-05T07:17:45.790Z,18.81
2022-10-05T07:20:27.751Z,18.94
2022-10-05T07:23:28.876Z,18.86
2022-10-05T07:26:07.193Z,18.80
2022-10-05T07:28:48.738Z,18.60
2022-10-05T07:31:30.672Z,18.71
2022-10-05T07:34:09.205Z,18.95
2022-10-05T07:37:07.205Z,19.09
2022-10-05T07:40:00.270Z,18.94
2022-10-05T07:42:51.573Z,18.96
2022-10-05T07:45:30.359Z,18.97
2022-10-05T07:48:11.999Z,18.91
2022-10-05T07:50:57.876Z,18.97
2022-10-05T07:53:38.100Z,19.05
2022-10-05T07:56:16.929Z,18.94
2022-10-05T07:58:55.790Z,18.94
2022-10-05T08:01:31.313Z,18.83
2022-10-05T08:04:12.631Z,19.07
2022-10-05T08:06:51.833Z,19.14
2022-10-05T08:09:38.134Z,18.85
2022-10-05T08:12:27.130Z,18.07
2022-10-05T08:15:06.473Z,17.79
2022-10-05T08:17:52.177Z,17.55
2022-10-05T08:20:43.917Z,17.56
2022-10-05T08:23:25.204Z,17.26
2022-10-05T08:26:13.816Z,17.67
2022-10-05T08:28:54.623Z,17.58
2022-10-05T08:31:31.910Z,17.07
2022-10-05T08:34:21.067Z,16.76
2022-10-05T08:37:01.602Z,16.46
2022-10-05T08:39:40.788Z,16.44
2022-10-05T08:42:40.896Z,16.46
2022-10-05T08:45:48.793Z,16.34
2022-10-05T09:26:44.869Z,15.85
2022-10-05T09:29:40.602Z,15.98
2022-10-05T09:32:58.684Z,16.04
2022-10-05T09:36:13.575Z,15.90
2022-10-05T09:39:14.397Z,15.74
2022-10-05T09:42:28.519Z,15.49
2022-10-05T09:45:29.616Z,15.34
2022-10-05T09:48:50.507Z,15.24
2022-10-05T09:52:05.882Z,15.01
2022-10-05T09:55:16.054Z,14.83
2022-10-05T09:58:34.616Z,14.87
2022-10-05T10:01:39.280Z,15.10
2022-10-05T10:04:47.914Z,15.03
2022-10-05T10:07:43.566Z,14.91
2022-10-05T10:10:54.710Z,15.26
2022-10-05T10:13:56.863Z,15.47
2022-10-05T10:17:08.208Z,15.64
2022-10-05T10:20:13.667Z,15.68
2022-10-05T10:23:08.986Z,15.79
2022-10-05T10:26:12.465Z,15.78
2022-10-05T10:29:21.720Z,15.56
2022-10-05T10:32:12.911Z,15.70
2022-10-05T10:35:23.214Z,15.36
2022-10-05T10:38:32.808Z,15.62
2022-10-05T10:41:51.473Z,15.53
2022-10-05T10:45:02.513Z,15.39
2022-10-05T10:47:45.249Z,15.44
2022-10-05T10:51:13.589Z,15.82
2022-10-05T10:54:29.703Z,15.85
2022-10-05T10:57:08.016Z,16.01
2022-10-05T11:00:20.363Z,15.90
2022-10-05T11:03:28.444Z,15.55
2022-10-05T11:06:27.086Z,15.60
2022-10-05T11:09:32.768Z,15.54
2022-10-05T11:12:53.005Z,15.76
2022-10-05T11:15:48.488Z,15.86
2022-10-05T11:18:35.917Z,15.58
2022-10-05T11:21:30.337Z,15.74
2022-10-05T11:24:39.787Z,15.96
2022-10-05T11:27:26.460Z,16.08
2022-10-05T11:30:28.562Z,15.85
2022-10-05T11:33:29.204Z,16.09
2022-10-05T11:36:44.159Z,16.08
2022-10-05T11:39:41.523Z,16.07
2022-10-05T11:42:49.628Z,15.94
2022-10-05T11:45:36.193Z,16.07
2022-10-05T11:48:36.294Z,16.07
2022-10-05T11:51:35.705Z,16.23
2022-10-05T11:54:26.914Z,16.21
2022-10-05T17:10:17.459Z,15.41
2022-10-05T17:13:05.029Z,15.35
2022-10-05T17:15:53.636Z,15.38
2022-10-05T17:18:34.145Z,15.34
2022-10-05T17:21:14.395Z,15.21
2022-10-05T17:23:55.691Z,15.06
2022-10-05T17:27:04.410Z,14.68
2022-10-05T17:29:52.154Z,14.57
2022-10-05T17:32:39.543Z,14.49
2022-10-05T17:35:40.772Z,14.66
2022-10-05T17:38:22.366Z,14.61
2022-10-05T17:41:17.063Z,14.53
2022-10-05T17:44:25.903Z,14.64
2022-10-05T17:47:03.951Z,14.64
2022-10-05T17:50:09.128Z,14.56
2022-10-05T17:53:02.478Z,14.50
2022-10-05T17:55:44.770Z,14.46
2022-10-05T17:59:04.185Z,14.48
2022-10-05T18:01:39.314Z,14.37
2022-10-05T18:04:39.505Z,14.32
2022-10-05T18:07:24.818Z,14.22
2022-10-05T18:10:17.306Z,14.14
2022-10-05T18:13:19.699Z,14.10
2022-10-05T18:15:52.549Z,14.13
2022-10-05T18:18:59.066Z,14.00
2022-10-05T18:21:49.518Z,14.00
2022-10-05T18:24:43.589Z,14.01
2022-10-05T18:27:36.804Z,13.95
2022-10-05T18:30:21.491Z,14.06
2022-10-05T18:33:38.854Z,14.01
2022-10-05T18:36:29.012Z,14.16
2022-10-05T18:39:15.281Z,14.21
2022-10-05T18:41:59.529Z,14.28
2022-10-05T18:44:40.570Z,14.27
2022-10-05T18:47:21.188Z,14.55
2022-10-05T18:50:06.095Z,14.65
2022-10-05T18:52:54.482Z,14.61
2022-10-05T18:55:34.154Z,14.66
2022-10-05T18:58:22.802Z,14.55
2022-10-05T19:01:18.423Z,14.79
2022-10-05T19:04:04.865Z,14.62
2022-10-05T19:06:52.578Z,14.42
2022-10-05T19:09:47.373Z,14.36
2022-10-05T19:12:31.338Z,14.46
2022-10-05T19:15:17.816Z,15.00
2022-10-05T19:18:14.186Z,14.83
2022-10-05T19:20:55.661Z,15.06
2022-10-05T19:23:57.996Z,14.85
2022-10-05T19:26:50.351Z,14.61
2022-10-05T19:29:41.281Z,14.71
2022-10-05T19:32:24.009Z,14.67
2022-10-05T19:35:10.087Z,14.69
2022-10-05T19:37:53.017Z,14.71
2022-10-05T19:40:34.929Z,14.66
2022-10-05T19:43:25.616Z,14.59
2022-10-05T19:46:14.079Z,14.65
2022-10-05T19:48:53.480Z,14.43
2022-10-05T19:51:30.813Z,14.53
2022-10-05T19:54:16.011Z,14.56
2022-10-05T19:56:52.943Z,14.41
2022-10-05T19:59:31.714Z,14.40
2022-10-05T20:02:06.857Z,14.30
2022-10-05T20:04:44.299Z,14.32
2022-10-05T20:07:21.640Z,14.24
2022-10-05T20:09:59.052Z,14.22
2022-10-05T20:12:51.322Z,14.19
2022-10-05T20:15:44.767Z,14.30
2022-10-05T20:18:57.597Z,14.18
2022-10-05T20:21:39.333Z,14.14
2022-10-05T20:24:14.825Z,14.09
2022-10-05T20:27:16.215Z,13.97
2022-10-05T20:29:51.080Z,13.92
2022-10-05T20:32:29.797Z,13.76
2022-10-05T20:35:07.328Z,13.96
2022-10-05T20:37:41.801Z,13.92
2022-10-05T20:40:15.732Z,13.86
2022-10-05T20:42:50.842Z,13.93
2022-10-05T20:45:24.390Z,13.92
2022-10-05T20:47:58.198Z,13.96
2022-10-05T20:50:33.172Z,13.89
2022-10-05T20:53:11.590Z,13.82
2022-10-05T20:55:45.800Z,13.66
2022-10-05T20:58:19.428Z,13.64
2022-10-05T21:01:10.637Z,13.58
2022-10-05T21:03:44.460Z,13.47
2022-10-05T21:06:21.327Z,13.54
2022-10-05T21:08:54.668Z,13.57
2022-10-05T21:11:29.018Z,13.52
2022-10-05T21:14:05.709Z,13.48
2022-10-05T21:16:41.063Z,13.51
2022-10-05T21:19:15.330Z,13.40
2022-10-05T21:21:50.507Z,13.52
2022-10-05T21:27:02.767Z,13.52
2022-10-05T21:29:37.255Z,13.52
2022-10-05T21:32:12.062Z,13.43
2022-10-05T21:34:45.020Z,13.40
2022-10-05T21:37:20.316Z,13.40
2022-10-05T21:39:54.106Z,13.35
2022-10-05T21:42:29.591Z,13.34
2022-10-05T21:45:03.209Z,13.42
2022-10-05T21:47:37.062Z,13.39
2022-10-05T21:50:10.990Z,13.41
2022-10-05T21:52:45.140Z,13.40
2022-10-05T21:55:19.673Z,13.30
2022-10-05T21:57:54.051Z,13.26
2022-10-05T22:00:27.669Z,13.36
2022-10-05T22:03:00.492Z,13.44
2022-10-05T22:05:34.145Z,13.42
2022-10-05T22:08:08.390Z,13.35
2022-10-05T22:10:41.190Z,13.36
2022-10-05T22:13:17.947Z,13.26
2022-10-05T22:15:50.939Z,13.19
2022-10-05T22:18:26.240Z,13.05
2022-10-05T22:21:00.194Z,13.06
2022-10-05T22:23:36.269Z,13.12
2022-10-05T22:26:12.047Z,12.99
2022-10-05T22:28:48.870Z,13.06
2022-10-05T22:31:22.371Z,13.14
2022-10-05T22:33:56.539Z,13.01
2022-10-05T22:36:30.380Z,13.01
2022-10-05T22:39:03.264Z,13.01
2022-10-05T22:41:36.911Z,13.14
2022-10-05T22:44:12.436Z,13.06
2022-10-05T22:46:47.361Z,13.13
2022-10-05T22:49:20.708Z,13.05
2022-10-05T22:51:54.803Z,13.00
2022-10-05T22:54:30.492Z,12.96
2022-10-05T22:57:06.425Z,13.10
2022-10-05T22:59:40.726Z,13.16
2022-10-05T23:02:14.851Z,13.20
2022-10-05T23:04:48.761Z,13.15
2022-10-05T23:07:21.586Z,13.09
2022-10-05T23:09:54.594Z,12.94
2022-10-05T23:12:27.352Z,12.91
2022-10-05T23:15:02.580Z,12.86
2022-10-05T23:17:39.144Z,12.88
2022-10-05T23:20:12.952Z,13.00
2022-10-05T23:22:45.813Z,13.02
2022-10-05T23:25:19.808Z,12.91
2022-10-05T23:27:53.577Z,12.84
2022-10-05T23:30:28.953Z,12.90
2022-10-05T23:33:02.675Z,12.97
2022-10-05T23:35:36.446Z,12.95
2022-10-05T23:38:09.540Z,13.06
2022-10-05T23:40:47.481Z,13.09
2022-10-05T23:43:21.186Z,13.11
2022-10-05T23:45:56.505Z,13.08
2022-10-05T23:48:31.138Z,13.20
2022-10-05T23:51:05.338Z,13.13
2022-10-05T23:53:39.437Z,13.20
2022-10-05T23:56:13.684Z,13.02
2022-10-05T23:58:46.519Z,13.01
